createdAt,value
2019-02-25T00:00:13.960Z,51.20
2019-02-25T00:05:17.606Z,51.60
2019-02-25T00:10:21.272Z,52.40
2019-02-25T00:15:25.168Z,52.40
2019-02-25T00:20:28.824Z,52.50
2019-02-25T00:25:32.492Z,52.70
2019-02-25T00:30:36.190Z,53.20
2019-02-25T00:35:39.906Z,52.90
2019-02-25T00:40:43.571Z,52.00
2019-02-25T00:45:47.867Z,51.50
2019-02-25T00:50:51.513Z,50.70
2019-02-25T00:55:55.168Z,50.30
2019-02-25T01:00:58.860Z,50.80
2019-02-25T01:06:02.537Z,50.50
2019-02-25T01:11:06.227Z,50.60
2019-02-25T01:16:09.907Z,50.30
2019-02-25T01:21:13.602Z,50.50
2019-02-25T01:26:17.253Z,50.50
2019-02-25T01:31:20.949Z,49.50
2019-02-25T01:36:24.746Z,49.70
2019-02-25T01:41:28.469Z,49.60
2019-02-25T01:46:32.151Z,49.50
2019-02-25T01:51:35.840Z,49.20
2019-02-25T01:56:39.533Z,49.30
2019-02-25T02:01:43.192Z,49.00
2019-02-25T02:06:46.876Z,48.40
2019-02-25T02:11:50.603Z,47.80
2019-02-25T02:16:54.489Z,47.50
2019-02-25T02:21:58.182Z,48.00
2019-02-25T02:27:01.922Z,48.00
2019-02-25T02:32:05.559Z,48.50
2019-02-25T02:37:09.214Z,48.30
2019-02-25T02:42:20.455Z,48.90
2019-02-25T02:47:32.973Z,49.00
2019-02-25T02:52:36.646Z,49.00
2019-02-25T02:57:40.359Z,49.10
2019-02-25T03:02:44.066Z,49.10
2019-02-25T03:07:47.796Z,49.20
2019-02-25T03:12:51.494Z,49.20
2019-02-25T03:17:55.174Z,49.80
2019-02-25T03:22:58.833Z,49.10
2019-02-25T03:28:02.505Z,49.00
2019-02-25T03:33:06.246Z,49.30
2019-02-25T03:38:09.980Z,48.90
2019-02-25T03:43:13.629Z,48.50
2019-02-25T03:48:17.341Z,48.50
2019-02-25T03:53:21.029Z,47.90
2019-02-25T03:58:24.694Z,47.60
2019-02-25T04:03:28.349Z,47.40
2019-02-25T04:08:32.037Z,47.40
2019-02-25T04:13:35.690Z,47.00
2019-02-25T04:18:39.384Z,47.10
2019-02-25T04:23:43.057Z,47.10
2019-02-25T04:28:46.792Z,47.30
2019-02-25T04:33:50.495Z,47.20
2019-02-25T04:38:54.165Z,47.20
2019-02-25T04:43:57.848Z,47.50
2019-02-25T04:49:01.540Z,47.80
2019-02-25T04:54:05.220Z,48.00
2019-02-25T04:59:08.910Z,48.30
2019-02-25T05:04:12.566Z,48.30
2019-02-25T05:09:16.238Z,48.30
2019-02-25T05:14:19.953Z,48.10
2019-02-25T05:19:23.960Z,48.70
2019-02-25T05:24:27.687Z,48.90
2019-02-25T05:29:31.364Z,49.30
2019-02-25T05:34:35.017Z,50.00
2019-02-25T05:39:38.710Z,50.00
2019-02-25T05:44:42.384Z,50.20
2019-02-25T05:49:46.073Z,50.40
2019-02-25T05:54:49.754Z,50.30
2019-02-25T05:59:53.467Z,50.30
2019-02-25T06:04:57.113Z,50.10
2019-02-25T06:10:00.765Z,49.70
2019-02-25T06:15:06.661Z,49.60
2019-02-25T06:20:13.030Z,48.80
2019-02-25T06:25:17.210Z,48.60
2019-02-25T06:30:21.898Z,48.10
2019-02-25T06:35:25.578Z,46.70
2019-02-25T06:40:29.292Z,43.80
2019-02-25T06:45:35.170Z,38.90
2019-02-25T06:50:38.850Z,39.90
2019-02-25T06:55:42.574Z,36.40
2019-02-25T07:00:46.261Z,34.00
2019-02-25T07:05:54.561Z,32.30
2019-02-25T07:11:05.914Z,29.80
2019-02-25T07:16:27.428Z,30.30
2019-02-25T07:21:50.754Z,29.10
2019-02-25T07:26:56.024Z,31.80
2019-02-25T07:32:04.278Z,29.40
2019-02-25T07:37:12.466Z,29.70
2019-02-25T07:42:23.932Z,28.70
2019-02-25T07:47:29.152Z,26.60
2019-02-25T07:52:52.723Z,26.00
2019-02-25T07:58:06.993Z,26.20
2019-02-25T08:03:27.181Z,27.30
2019-02-25T08:08:32.443Z,26.40
2019-02-25T08:13:37.677Z,30.60
2019-02-25T08:19:01.093Z,32.30
2019-02-25T08:24:06.340Z,31.30
2019-02-25T08:29:29.807Z,28.50
2019-02-25T08:34:51.287Z,29.70
2019-02-25T08:40:11.697Z,32.80
2019-02-25T08:45:25.975Z,32.70
2019-02-25T08:50:29.665Z,31.80
2019-02-25T08:55:33.387Z,32.90
2019-02-25T09:00:37.070Z,32.30
2019-02-25T09:05:40.758Z,31.40
2019-02-25T09:10:44.440Z,29.70
2019-02-25T09:15:48.106Z,31.10
2019-02-25T09:20:51.804Z,32.20
2019-02-25T09:25:55.489Z,30.30
2019-02-25T09:30:59.204Z,32.20
2019-02-25T09:36:02.905Z,32.10
2019-02-25T09:41:06.565Z,32.70
2019-02-25T09:46:10.226Z,32.50
2019-02-25T09:51:13.881Z,35.50
2019-02-25T09:56:17.568Z,34.10
2019-02-25T10:01:21.266Z,34.50
2019-02-25T10:06:24.955Z,34.70
2019-02-25T10:11:28.646Z,35.90
2019-02-25T10:16:32.339Z,36.60
2019-02-25T10:21:36.024Z,37.20
2019-02-25T10:26:39.696Z,36.00
2019-02-25T10:31:43.802Z,35.50
2019-02-25T10:36:48.158Z,36.30
2019-02-25T10:41:54.024Z,37.30
2019-02-25T10:46:58.339Z,36.10
2019-02-25T10:52:02.001Z,36.30
2019-02-25T10:57:06.017Z,33.30
2019-02-25T11:02:11.639Z,37.10
2019-02-25T11:07:15.051Z,37.40
2019-02-25T11:12:18.861Z,38.80
2019-02-25T11:17:24.320Z,39.00
2019-02-25T11:22:27.857Z,38.90
2019-02-25T11:27:33.155Z,39.00
2019-02-25T11:32:37.150Z,38.30
2019-02-25T11:37:40.863Z,38.70
2019-02-25T11:42:44.716Z,39.40
2019-02-25T11:47:48.365Z,39.30
2019-02-25T11:52:52.102Z,39.60
2019-02-25T11:57:55.758Z,39.90
2019-02-25T12:02:59.424Z,40.10
2019-02-25T12:08:03.119Z,39.80
2019-02-25T12:13:06.769Z,39.50
2019-02-25T12:18:10.467Z,39.90
2019-02-25T12:23:14.129Z,39.70
2019-02-25T12:28:17.794Z,39.00
2019-02-25T12:33:21.497Z,38.90
2019-02-25T12:38:25.152Z,39.70
2019-02-25T12:43:28.813Z,40.20
2019-02-25T12:48:32.473Z,41.20
2019-02-25T12:53:37.767Z,41.60
2019-02-25T12:58:41.662Z,41.20
2019-02-25T13:03:45.317Z,40.60
2019-02-25T13:08:48.993Z,41.40
2019-02-25T13:13:52.666Z,40.10
2019-02-25T13:18:56.321Z,40.20
2019-02-25T13:24:01.902Z,39.20
2019-02-25T13:29:05.386Z,39.50
2019-02-25T13:34:09.132Z,39.80
2019-02-25T13:39:12.837Z,39.90
2019-02-25T13:44:16.635Z,39.80
2019-02-25T13:49:20.329Z,40.10
2019-02-25T13:54:24.107Z,39.60
2019-02-25T13:59:28.132Z,40.60
2019-02-25T14:04:31.802Z,40.30
2019-02-25T14:09:35.461Z,40.70
2019-02-25T14:14:39.160Z,40.90
2019-02-25T14:19:42.847Z,41.60
2019-02-25T14:24:46.852Z,41.60
2019-02-25T14:29:50.910Z,41.60
2019-02-25T14:34:54.603Z,42.10
2019-02-25T14:40:01.376Z,42.10
2019-02-25T14:45:04.606Z,42.50
2019-02-25T14:50:19.719Z,42.80
2019-02-25T14:55:23.615Z,42.50
2019-02-25T15:00:28.989Z,41.90
2019-02-25T15:05:33.643Z,42.00
2019-02-25T15:10:38.559Z,42.10
2019-02-25T15:15:44.126Z,42.20
2019-02-25T15:20:49.035Z,42.30
2019-02-25T15:25:52.762Z,42.90
2019-02-25T15:30:59.737Z,43.30
2019-02-25T15:36:01.753Z,43.60
2019-02-25T15:41:07.440Z,44.10
2019-02-25T15:46:12.486Z,44.30
2019-02-25T15:51:18.375Z,44.40
2019-02-25T15:56:22.299Z,45.10
2019-02-25T16:01:25.990Z,45.70
2019-02-25T16:06:30.998Z,46.50
2019-02-25T16:11:36.646Z,47.00
2019-02-25T16:16:40.409Z,47.80
2019-02-25T16:21:44.202Z,48.40
2019-02-25T16:26:48.751Z,48.90
2019-02-25T16:31:53.507Z,49.50
2019-02-25T16:36:58.772Z,49.50
2019-02-25T16:42:03.342Z,49.70
2019-02-25T16:47:07.908Z,49.50
2019-02-25T16:52:13.920Z,49.90
2019-02-25T16:57:18.516Z,50.00
2019-02-25T17:02:23.021Z,50.20
2019-02-25T17:07:26.709Z,50.90
2019-02-25T17:12:31.647Z,51.60
2019-02-25T17:17:35.506Z,52.00
2019-02-25T17:22:39.195Z,52.40
2019-02-25T17:27:42.906Z,53.00
2019-02-25T17:32:48.404Z,53.60
2019-02-25T17:37:53.424Z,54.20
2019-02-25T17:42:57.684Z,54.60
2019-02-25T17:48:03.559Z,54.70
2019-02-25T17:53:07.435Z,54.40
2019-02-25T17:58:13.009Z,54.60
2019-02-25T18:03:17.409Z,54.90
2019-02-25T18:08:21.939Z,55.40
2019-02-25T18:13:28.112Z,55.80
2019-02-25T18:18:32.393Z,56.20
2019-02-25T18:23:36.323Z,57.30
2019-02-25T18:28:41.641Z,56.90
2019-02-25T18:33:48.078Z,57.40
2019-02-25T18:38:52.781Z,57.70
2019-02-25T18:43:56.969Z,57.90
2019-02-25T18:49:00.685Z,58.20
2019-02-25T18:54:04.525Z,58.80
2019-02-25T18:59:13.034Z,59.50
2019-02-25T19:04:15.236Z,60.00
2019-02-25T19:09:21.188Z,60.10
2019-02-25T19:14:26.506Z,60.30
2019-02-25T19:19:31.340Z,60.90
2019-02-25T19:24:39.694Z,61.50
2019-02-25T19:29:41.173Z,62.00
2019-02-25T19:34:44.905Z,62.40
2019-02-25T19:39:50.421Z,63.10
2019-02-25T19:44:53.914Z,63.60
2019-02-25T19:49:59.651Z,63.80
2019-02-25T19:55:06.191Z,64.30
2019-02-25T20:00:24.990Z,64.40
2019-02-25T20:05:27.885Z,64.50
2019-02-25T20:10:31.544Z,64.40
2019-02-25T20:15:37.549Z,64.10
2019-02-25T20:20:41.696Z,63.80
2019-02-25T20:25:48.489Z,63.70
2019-02-25T20:30:52.028Z,63.80
2019-02-25T20:35:58.906Z,63.80
2019-02-25T20:41:02.594Z,64.80
2019-02-25T20:46:08.592Z,64.00
2019-02-25T20:51:12.013Z,64.00
2019-02-25T20:56:15.918Z,64.00
2019-02-25T21:01:20.959Z,63.30
2019-02-25T21:06:24.750Z,62.90
2019-02-25T21:11:28.480Z,62.50
2019-02-25T21:16:33.101Z,62.30
2019-02-25T21:21:38.982Z,62.10
2019-02-25T21:26:42.830Z,61.90
2019-02-25T21:31:47.559Z,62.00
2019-02-25T21:36:53.936Z,62.00
2019-02-25T21:41:57.173Z,62.50
2019-02-25T21:47:03.208Z,62.70
2019-02-25T21:52:06.698Z,63.10
2019-02-25T21:57:11.527Z,63.20
2019-02-25T22:02:15.886Z,63.90
2019-02-25T22:07:24.161Z,63.70
2019-02-25T22:12:26.902Z,64.00
2019-02-25T22:17:30.782Z,64.20
2019-02-25T22:22:35.348Z,64.20
2019-02-25T22:27:41.256Z,64.50
2019-02-25T22:32:45.101Z,64.90
2019-02-25T22:37:52.060Z,64.70
2019-02-25T22:42:54.968Z,65.10
2019-02-25T22:47:59.423Z,65.20
2019-02-25T22:53:04.257Z,65.50
2019-02-25T22:58:10.444Z,65.70
2019-02-25T23:03:15.493Z,66.00
2019-02-25T23:08:21.101Z,65.70
2019-02-25T23:13:25.063Z,66.20
2019-02-25T23:18:30.015Z,66.60
2019-02-25T23:23:35.624Z,67.30
2019-02-25T23:28:39.075Z,68.30
2019-02-25T23:33:44.304Z,67.80
2019-02-25T23:38:48.077Z,68.10
2019-02-25T23:43:52.024Z,67.80
2019-02-25T23:48:55.745Z,68.00
2019-02-25T23:53:59.424Z,67.50
2019-02-25T23:59:03.085Z,67.90
